Time;durP1;ratioP1;P1;durP2;ratioP2;P2;SDS_P1;SDS_P2;PMS_P1;PMS_P2;Temp;Humidity;BMP_temperature;BMP_pressure;BME280_temperature;BME280_humidity;BME280_pressure;Samples;Min_cycle;Max_cycle;Signal;HPM_P1;HPM_P2
2022/10/01 00:00:51;;;;;;;8.50;6.68;;;11.80;99.90;;;;;;5025328;28;20179;-53
2022/10/01 00:03:17;;;;;;;13.30;7.05;;;11.80;99.90;;;;;;5053168;28;20250;-51
2022/10/01 00:05:43;;;;;;;10.93;6.80;;;11.80;99.90;;;;;;5014814;28;20194;-57
2022/10/01 00:08:10;;;;;;;12.07;7.38;;;11.80;99.90;;;;;;5044795;28;20183;-53
2022/10/01 00:10:40;;;;;;;10.75;6.78;;;11.80;99.90;;;;;;5029409;28;20218;-56
2022/10/01 00:13:07;;;;;;;11.38;7.45;;;11.80;99.90;;;;;;5015460;28;20211;-53
2022/10/01 00:15:32;;;;;;;14.60;7.45;;;11.80;99.90;;;;;;5033146;28;20172;-62
2022/10/01 00:17:58;;;;;;;9.98;7.20;;;11.80;99.90;;;;;;5028386;28;20190;-54
2022/10/01 00:20:24;;;;;;;9.63;7.20;;;11.80;99.90;;;;;;5052409;28;20179;-54
2022/10/01 00:22:50;;;;;;;12.50;6.70;;;11.80;99.90;;;;;;5035015;28;20611;-55
2022/10/01 00:25:15;;;;;;;8.18;6.70;;;11.80;99.90;;;;;;5052600;28;20642;-55
2022/10/01 00:27:45;;;;;;;9.75;6.40;;;11.80;99.90;;;;;;5040657;28;20188;-53
2022/10/01 00:30:11;;;;;;;11.15;6.45;;;11.80;99.90;;;;;;5015705;28;20168;-54
2022/10/01 00:32:37;;;;;;;10.43;6.70;;;11.80;99.90;;;;;;5041834;28;20206;-54
2022/10/01 00:35:08;;;;;;;11.60;6.55;;;11.80;99.90;;;;;;5055823;28;20183;-55
2022/10/01 00:37:37;;;;;;;10.93;6.20;;;11.80;99.90;;;;;;5051683;28;20175;-56
2022/10/01 00:40:04;;;;;;;10.30;5.75;;;11.80;99.90;;;;;;5001368;28;20282;-51
2022/10/01 00:42:31;;;;;;;7.75;5.70;;;11.80;99.90;;;;;;5036561;28;20190;-55
2022/10/01 00:45:01;;;;;;;7.43;5.47;;;11.80;99.90;;;;;;5055954;28;20171;-52
2022/10/01 00:47:54;;;;;;;6.18;5.03;;;11.70;99.90;;;;;;5036518;28;20194;-50
2022/10/01 00:50:27;;;;;;;6.57;5.15;;;11.80;99.90;;;;;;5034724;28;20192;-54
2022/10/01 00:53:00;;;;;;;6.68;4.90;;;11.80;99.90;;;;;;5035899;28;20203;-52
2022/10/01 00:55:31;;;;;;;7.15;5.60;;;11.80;99.90;;;;;;5036094;28;20263;-48
2022/10/01 00:57:57;;;;;;;8.00;4.95;;;11.80;99.90;;;;;;5044269;28;20266;-55
2022/10/01 01:00:24;;;;;;;5.35;4.55;;;11.80;99.90;;;;;;5047620;28;20187;-65
2022/10/01 01:02:50;;;;;;;6.03;4.38;;;11.80;99.90;;;;;;5056597;28;20357;-52
2022/10/01 01:05:16;;;;;;;6.70;4.75;;;11.80;99.90;;;;;;5037287;28;20603;-58
2022/10/01 01:07:45;;;;;;;6.38;5.25;;;11.70;99.90;;;;;;5051327;28;20219;-55
2022/10/01 01:10:15;;;;;;;7.03;5.35;;;11.70;99.90;;;;;;5041836;28;20631;-52
2022/10/01 01:12:57;;;;;;;9.38;5.25;;;11.80;99.90;;;;;;5055053;28;20282;-50
2022/10/01 01:15:45;;;;;;;7.32;5.25;;;11.90;99.90;;;;;;5056431;28;20262;-55
2022/10/01 01:18:51;;;;;;;7.78;5.95;;;11.80;99.90;;;;;;5055426;28;20180;-51
2022/10/01 01:21:33;;;;;;;10.18;5.85;;;11.80;99.90;;;;;;5003791;28;20204;-50
2022/10/01 01:24:10;;;;;;;7.40;5.50;;;11.80;99.90;;;;;;5034855;28;20184;-55
2022/10/01 01:26:55;;;;;;;7.75;6.43;;;11.80;99.90;;;;;;5034344;28;20532;-54
2022/10/01 01:29:33;;;;;;;8.00;6.40;;;11.80;99.90;;;;;;5035875;28;20172;-51
2022/10/01 01:32:07;;;;;;;6.60;5.55;;;11.80;99.90;;;;;;5045951;28;20182;-53
2022/10/01 01:34:35;;;;;;;8.02;6.03;;;11.90;99.90;;;;;;5054646;28;20175;-64
2022/10/01 01:37:11;;;;;;;9.85;6.32;;;11.90;99.90;;;;;;5051549;28;20186;-52
2022/10/01 01:39:40;;;;;;;8.38;5.88;;;11.80;99.90;;;;;;5054793;28;20235;-57
2022/10/01 01:42:22;;;;;;;6.88;5.82;;;11.90;99.90;;;;;;5030451;28;20184;-63
2022/10/01 01:44:50;;;;;;;7.05;6.30;;;11.90;99.90;;;;;;5025012;28;20175;-54
2022/10/01 01:47:21;;;;;;;9.43;6.53;;;11.90;99.90;;;;;;5054425;28;20183;-53
2022/10/01 01:49:49;;;;;;;7.72;6.35;;;11.90;99.90;;;;;;5054009;28;20623;-54
2022/10/01 01:52:16;;;;;;;7.75;5.45;;;11.90;99.90;;;;;;5047294;28;20236;-52
2022/10/01 01:54:46;;;;;;;7.35;6.60;;;11.90;99.90;;;;;;5053093;28;20195;-54
2022/10/01 01:57:14;;;;;;;8.32;6.45;;;11.90;99.90;;;;;;5054514;28;20198;-54
2022/10/01 01:59:41;;;;;;;7.47;6.70;;;12.00;99.90;;;;;;5054603;28;20237;-55
2022/10/01 02:02:17;;;;;;;8.70;6.40;;;12.00;99.90;;;;;;5048543;28;20202;-51
2022/10/01 02:04:56;;;;;;;8.30;6.65;;;12.00;99.90;;;;;;5052315;28;20292;-53
2022/10/01 02:07:51;;;;;;;8.57;6.90;;;12.00;99.90;;;;;;5054450;28;20254;-54
2022/10/01 02:10:38;;;;;;;10.00;6.97;;;12.00;99.90;;;;;;5053982;28;20186;-51
2022/10/01 02:13:42;;;;;;;10.75;7.25;;;12.10;99.90;;;;;;5047169;28;20793;-54
2022/10/01 02:16:29;;;;;;;8.38;6.47;;;12.10;99.90;;;;;;5025337;28;20202;-55
2022/10/01 02:19:04;;;;;;;9.35;6.38;;;12.10;99.90;;;;;;5054756;28;20623;-52
2022/10/01 02:21:49;;;;;;;8.00;6.15;;;12.10;99.90;;;;;;5051606;28;20210;-55
2022/10/01 02:24:44;;;;;;;9.13;6.20;;;12.20;99.90;;;;;;5043946;28;20269;-54
2022/10/01 02:27:32;;;;;;;8.68;5.68;;;12.20;99.90;;;;;;5050027;28;20183;-52
2022/10/01 02:30:03;;;;;;;8.32;5.90;;;12.30;99.90;;;;;;5053557;28;20202;-51
2022/10/01 02:32:30;;;;;;;8.10;6.05;;;12.30;99.90;;;;;;5053217;28;20191;-54
2022/10/01 02:34:57;;;;;;;9.32;5.70;;;12.30;99.90;;;;;;5027091;28;20194;-52
2022/10/01 02:37:26;;;;;;;6.60;5.50;;;12.40;99.90;;;;;;5054134;28;20198;-51
2022/10/01 02:39:55;;;;;;;6.00;5.05;;;12.40;99.90;;;;;;5054096;28;20168;-56
2022/10/01 02:42:25;;;;;;;8.93;5.60;;;12.50;99.90;;;;;;5053305;28;20608;-53
2022/10/01 02:44:54;;;;;;;8.02;5.40;;;12.50;99.90;;;;;;5052200;28;20187;-52
2022/10/01 02:47:36;;;;;;;10.82;6.05;;;12.60;99.90;;;;;;5052490;28;20209;-53
2022/10/01 02:50:04;;;;;;;6.60;5.32;;;12.60;99.90;;;;;;5054272;28;20569;-53
2022/10/01 02:52:37;;;;;;;7.75;5.53;;;12.60;99.90;;;;;;5053598;28;20244;-52
2022/10/01 02:55:11;;;;;;;8.35;5.72;;;12.70;99.90;;;;;;5047354;28;20214;-62
2022/10/01 02:57:37;;;;;;;7.78;5.72;;;12.70;99.90;;;;;;5049985;28;20635;-49
2022/10/01 03:00:14;;;;;;;8.02;6.25;;;12.70;99.90;;;;;;5035714;28;20224;-53
2022/10/01 03:02:40;;;;;;;10.25;6.00;;;12.70;99.90;;;;;;5052897;28;20198;-52
2022/10/01 03:05:07;;;;;;;7.22;6.22;;;12.70;99.90;;;;;;5047303;28;20196;-54
2022/10/01 03:07:34;;;;;;;8.68;6.22;;;12.80;99.90;;;;;;5040792;28;20222;-52
2022/10/01 03:10:04;;;;;;;7.28;6.28;;;12.80;99.90;;;;;;5035543;28;20520;-49
2022/10/01 03:12:31;;;;;;;8.95;5.72;;;12.80;99.90;;;;;;5053003;28;20195;-54
2022/10/01 03:14:56;;;;;;;10.75;6.20;;;12.90;99.90;;;;;;5052574;28;20187;-53
2022/10/01 03:17:22;;;;;;;10.95;6.53;;;12.90;99.90;;;;;;5028853;28;20690;-50
2022/10/01 03:19:48;;;;;;;9.95;6.07;;;12.90;99.90;;;;;;5052934;28;20259;-49
2022/10/01 03:22:17;;;;;;;11.20;6.70;;;12.90;99.90;;;;;;5052904;28;20240;-52
2022/10/01 03:24:43;;;;;;;11.85;6.72;;;12.90;99.90;;;;;;5052659;28;20662;-50
2022/10/01 03:27:09;;;;;;;8.23;6.28;;;12.90;99.90;;;;;;5029466;28;20244;-49
2022/10/01 03:29:35;;;;;;;9.35;6.20;;;12.90;99.90;;;;;;5047851;28;20186;-50
2022/10/01 03:32:01;;;;;;;9.40;6.05;;;12.90;99.90;;;;;;5046381;28;20187;-51
2022/10/01 03:34:26;;;;;;;12.85;6.50;;;12.90;99.90;;;;;;5051692;28;20257;-52
2022/10/01 03:36:52;;;;;;;10.55;6.93;;;12.90;99.90;;;;;;5018679;28;20183;-51
2022/10/01 03:39:18;;;;;;;8.70;6.00;;;12.90;99.90;;;;;;5052433;28;20184;-50
2022/10/01 03:41:44;;;;;;;16.15;5.95;;;12.90;99.90;;;;;;5052009;28;20179;-50
2022/10/01 03:44:10;;;;;;;14.10;5.68;;;13.00;99.90;;;;;;5011187;28;20188;-48
2022/10/01 03:46:36;;;;;;;25.08;6.00;;;13.00;99.90;;;;;;5024761;28;20190;-51
2022/10/01 03:49:02;;;;;;;15.57;5.38;;;13.00;99.90;;;;;;5052650;28;20172;-50
2022/10/01 03:51:29;;;;;;;21.08;6.10;;;13.10;99.90;;;;;;5052028;28;20268;-49
2022/10/01 03:53:56;;;;;;;17.00;5.30;;;13.20;99.90;;;;;;5052964;28;20199;-53
2022/10/01 03:56:22;;;;;;;24.48;5.55;;;13.20;99.90;;;;;;5034917;28;20199;-49
2022/10/01 03:58:48;;;;;;;20.83;4.75;;;13.20;99.90;;;;;;5053203;28;20203;-49
2022/10/01 04:01:14;;;;;;;25.60;5.40;;;13.30;99.90;;;;;;5052113;28;20207;-55
2022/10/01 04:03:40;;;;;;;16.90;5.30;;;13.30;99.90;;;;;;5042424;28;20254;-48
2022/10/01 04:06:06;;;;;;;25.30;5.38;;;13.30;99.90;;;;;;5054502;28;20210;-55
2022/10/01 04:08:32;;;;;;;19.42;4.85;;;13.30;99.90;;;;;;5056458;28;20183;-48
2022/10/01 04:10:59;;;;;;;23.38;4.97;;;13.30;99.90;;;;;;5056519;28;20606;-50
2022/10/01 04:13:25;;;;;;;27.40;4.78;;;13.30;99.90;;;;;;5054365;28;20215;-52
2022/10/01 04:15:52;;;;;;;25.73;5.18;;;13.30;99.90;;;;;;5056165;28;20667;-49
2022/10/01 04:18:20;;;;;;;13.68;3.70;;;13.30;99.90;;;;;;5056474;28;20164;-50
2022/10/01 04:20:46;;;;;;;20.08;4.15;;;13.30;99.90;;;;;;5049469;28;20252;-52
2022/10/01 04:23:13;;;;;;;26.85;4.03;;;13.40;99.90;;;;;;5054945;28;20724;-50
2022/10/01 04:25:39;;;;;;;33.00;4.10;;;13.50;99.90;;;;;;5055977;28;20202;-51
2022/10/01 04:28:07;;;;;;;20.70;3.92;;;13.50;99.90;;;;;;5055351;28;20168;-52
2022/10/01 04:30:35;;;;;;;21.10;3.53;;;13.50;99.90;;;;;;5052698;28;20175;-51
2022/10/01 04:33:01;;;;;;;36.45;3.83;;;13.50;99.90;;;;;;5047837;28;20203;-51
2022/10/01 04:35:27;;;;;;;15.65;3.88;;;13.60;99.90;;;;;;5019103;28;20214;-48
2022/10/01 04:38:02;;;;;;;27.13;3.75;;;13.70;99.90;;;;;;5036158;28;20239;-47
2022/10/01 04:40:30;;;;;;;25.02;3.17;;;13.60;99.90;;;;;;5044889;28;20187;-51
2022/10/01 04:42:56;;;;;;;21.50;3.53;;;13.70;99.90;;;;;;5045372;28;20198;-57
2022/10/01 04:45:22;;;;;;;33.55;3.80;;;13.70;99.90;;;;;;5051612;28;20188;-48
2022/10/01 04:47:50;;;;;;;17.48;3.25;;;13.70;99.90;;;;;;5055483;28;20440;-52
2022/10/01 04:50:17;;;;;;;20.15;3.25;;;13.70;99.90;;;;;;5054464;28;20171;-52
2022/10/01 04:52:45;;;;;;;17.15;2.92;;;13.70;99.90;;;;;;5054598;28;20564;-61
2022/10/01 04:55:12;;;;;;;20.52;3.00;;;13.70;99.90;;;;;;5044571;28;20187;-60
2022/10/01 04:57:40;;;;;;;26.50;3.60;;;13.70;99.90;;;;;;5043252;28;20655;-52
2022/10/01 05:00:10;;;;;;;14.23;2.67;;;13.70;99.90;;;;;;5051796;28;20187;-55
2022/10/01 05:02:36;;;;;;;19.30;2.80;;;13.70;99.90;;;;;;5053325;28;20521;-54
2022/10/01 05:05:06;;;;;;;19.17;3.00;;;13.70;99.90;;;;;;5054711;28;20237;-52
2022/10/01 05:07:33;;;;;;;21.80;3.33;;;13.70;99.90;;;;;;5050866;28;20180;-54
2022/10/01 05:09:59;;;;;;;24.70;4.00;;;13.70;99.90;;;;;;5035970;28;20254;-52
2022/10/01 05:12:28;;;;;;;16.50;2.63;;;13.60;99.90;;;;;;5045367;28;20197;-53
2022/10/01 05:14:55;;;;;;;15.27;2.88;;;13.70;99.90;;;;;;5037167;28;20194;-52
2022/10/01 05:17:21;;;;;;;15.32;2.53;;;13.70;99.90;;;;;;5039056;28;20194;-50
2022/10/01 05:19:48;;;;;;;21.20;3.00;;;13.70;99.90;;;;;;5055230;28;20509;-51
2022/10/01 05:22:14;;;;;;;25.23;3.30;;;13.70;99.90;;;;;;5049183;28;20184;-52
2022/10/01 05:24:40;;;;;;;12.95;2.50;;;13.70;99.90;;;;;;5053014;28;20249;-51
2022/10/01 05:27:12;;;;;;;26.60;3.00;;;13.70;99.90;;;;;;5054957;28;20318;-51
2022/10/01 05:29:41;;;;;;;22.08;3.00;;;13.80;99.90;;;;;;5036053;28;20176;-52
2022/10/01 05:32:08;;;;;;;19.17;3.10;;;13.80;99.90;;;;;;5047275;28;20195;-54
2022/10/01 05:34:34;;;;;;;26.13;3.17;;;13.80;99.90;;;;;;5042558;28;20234;-51
2022/10/01 05:37:01;;;;;;;23.33;3.78;;;13.80;99.90;;;;;;5046313;28;20268;-58
2022/10/01 05:39:28;;;;;;;22.80;3.70;;;13.80;99.90;;;;;;5054252;28;20181;-50
2022/10/01 05:41:54;;;;;;;17.80;2.88;;;13.80;99.90;;;;;;5065576;28;20205;-52
2022/10/01 05:44:24;;;;;;;16.10;2.67;;;13.80;99.90;;;;;;5035790;28;20219;-54
2022/10/01 05:46:51;;;;;;;21.27;3.15;;;13.80;99.90;;;;;;5049365;28;20198;-56
2022/10/01 05:49:17;;;;;;;21.38;3.10;;;13.80;99.90;;;;;;5054604;28;20247;-49
2022/10/01 05:51:43;;;;;;;17.67;3.05;;;13.80;99.90;;;;;;5034846;28;20180;-49
2022/10/01 05:54:11;;;;;;;21.15;3.42;;;13.90;99.90;;;;;;5054613;28;20226;-48
2022/10/01 05:56:37;;;;;;;16.90;2.58;;;13.90;99.90;;;;;;5048625;28;20624;-51
2022/10/01 05:59:03;;;;;;;20.10;3.35;;;13.90;99.90;;;;;;5018863;28;20183;-51
2022/10/01 06:01:31;;;;;;;17.90;2.80;;;13.90;99.90;;;;;;5048724;28;20194;-50
2022/10/01 06:03:57;;;;;;;25.15;3.70;;;14.00;99.90;;;;;;5052911;28;20223;-52
2022/10/01 06:06:26;;;;;;;19.52;2.92;;;14.00;99.90;;;;;;5048632;28;20184;-50
2022/10/01 06:08:52;;;;;;;20.08;2.72;;;14.00;99.90;;;;;;5033770;28;20208;-49
2022/10/01 06:11:20;;;;;;;18.63;2.78;;;14.00;99.90;;;;;;5042990;28;20221;-48
2022/10/01 06:13:46;;;;;;;20.27;2.75;;;13.90;99.90;;;;;;5053743;28;20202;-53
2022/10/01 06:16:13;;;;;;;14.20;3.05;;;14.00;99.90;;;;;;5054839;28;20179;-59
2022/10/01 06:18:39;;;;;;;20.13;3.17;;;14.00;99.90;;;;;;5038132;28;20190;-54
2022/10/01 06:21:05;;;;;;;15.50;2.65;;;14.10;99.90;;;;;;5032867;28;21168;-61
2022/10/01 06:23:32;;;;;;;22.13;3.38;;;14.00;99.90;;;;;;5050389;28;20187;-51
2022/10/01 06:26:01;;;;;;;16.70;2.92;;;14.10;99.90;;;;;;5054467;28;20179;-51
2022/10/01 06:28:27;;;;;;;12.13;2.35;;;14.10;99.90;;;;;;5040938;28;20191;-54
2022/10/01 06:30:53;;;;;;;14.80;3.08;;;14.10;99.90;;;;;;5036030;28;20658;-61
2022/10/01 06:33:19;;;;;;;24.27;2.95;;;14.20;99.90;;;;;;5040143;28;20211;-50
2022/10/01 06:35:47;;;;;;;16.50;3.10;;;14.20;99.90;;;;;;5052952;28;20236;-50
2022/10/01 06:38:14;;;;;;;19.92;3.15;;;14.30;99.90;;;;;;5050311;28;20187;-51
2022/10/01 06:40:41;;;;;;;21.90;3.22;;;14.30;99.90;;;;;;5035236;28;20273;-50
2022/10/01 06:43:07;;;;;;;17.50;2.95;;;14.40;99.90;;;;;;5039889;28;20740;-52
2022/10/01 06:45:37;;;;;;;17.30;3.05;;;14.40;99.90;;;;;;5035971;28;20631;-48
2022/10/01 06:48:03;;;;;;;20.60;3.83;;;14.50;99.90;;;;;;5008158;28;20194;-49
2022/10/01 06:50:30;;;;;;;20.88;3.40;;;14.50;99.90;;;;;;5034168;28;20190;-52
2022/10/01 06:52:57;;;;;;;23.55;3.05;;;14.50;99.90;;;;;;5035764;28;20245;-54
2022/10/01 06:55:29;;;;;;;21.17;3.38;;;14.50;99.90;;;;;;5053684;28;20176;-51
2022/10/01 06:57:58;;;;;;;18.80;3.00;;;14.40;99.90;;;;;;5036043;28;20195;-51
2022/10/01 07:00:25;;;;;;;23.52;4.00;;;14.40;99.90;;;;;;5038051;28;20184;-51
2022/10/01 07:02:51;;;;;;;20.42;3.50;;;14.40;99.90;;;;;;5035646;28;20200;-52
2022/10/01 07:05:17;;;;;;;20.92;4.13;;;14.50;99.90;;;;;;5016549;28;21207;-56
2022/10/01 07:07:43;;;;;;;15.70;2.92;;;14.40;99.90;;;;;;5032422;28;20277;-62
2022/10/01 07:10:10;;;;;;;18.48;3.45;;;14.50;99.90;;;;;;5043009;28;20195;-50
2022/10/01 07:12:37;;;;;;;22.45;3.60;;;14.50;99.90;;;;;;5033466;28;20212;-52
2022/10/01 07:15:04;;;;;;;25.58;3.42;;;14.50;99.90;;;;;;5024299;28;20211;-51
2022/10/01 07:17:31;;;;;;;18.25;3.33;;;14.60;99.90;;;;;;5036175;28;20207;-53
2022/10/01 07:19:56;;;;;;;21.40;3.50;;;14.70;99.90;;;;;;5043182;28;20183;-50
2022/10/01 07:22:23;;;;;;;22.92;3.50;;;14.70;99.90;;;;;;5053565;28;20528;-54
2022/10/01 07:24:50;;;;;;;23.40;3.20;;;14.80;99.90;;;;;;5032782;28;21017;-53
2022/10/01 07:27:17;;;;;;;25.50;3.15;;;14.90;99.90;;;;;;5009822;28;20186;-62
2022/10/01 07:29:43;;;;;;;19.13;3.17;;;15.00;99.90;;;;;;5047884;28;20187;-49
2022/10/01 07:32:09;;;;;;;29.33;3.30;;;15.10;99.90;;;;;;5052448;28;20266;-49
2022/10/01 07:34:39;;;;;;;23.10;2.95;;;15.20;99.90;;;;;;5052222;28;20298;-58
2022/10/01 07:37:05;;;;;;;14.23;2.42;;;15.20;99.90;;;;;;5034687;28;20194;-49
2022/10/01 07:39:31;;;;;;;15.10;2.58;;;15.30;99.90;;;;;;5012579;28;20191;-62
2022/10/01 07:41:57;;;;;;;21.95;3.10;;;15.40;99.90;;;;;;5064657;28;20204;-48
2022/10/01 07:44:24;;;;;;;27.35;3.22;;;15.40;99.90;;;;;;5055401;28;20183;-52
2022/10/01 07:46:49;;;;;;;16.85;2.60;;;15.40;99.90;;;;;;5038711;28;20180;-47
2022/10/01 07:49:15;;;;;;;17.13;3.30;;;15.40;99.90;;;;;;5017794;28;20191;-52
2022/10/01 07:51:44;;;;;;;18.80;2.78;;;15.40;99.90;;;;;;5034556;28;20183;-50
2022/10/01 07:54:10;;;;;;;16.05;2.90;;;15.40;99.90;;;;;;5033585;28;20200;-54
2022/10/01 07:56:36;;;;;;;19.98;3.08;;;15.40;99.90;;;;;;5046830;28;20229;-53
2022/10/01 07:59:02;;;;;;;19.40;2.78;;;15.30;99.90;;;;;;5039658;28;20179;-55
2022/10/01 08:01:30;;;;;;;23.10;2.83;;;15.40;99.90;;;;;;5046992;28;20202;-54
2022/10/01 08:03:56;;;;;;;20.40;2.88;;;15.40;99.90;;;;;;5033643;28;20274;-56
2022/10/01 08:06:22;;;;;;;18.88;3.00;;;15.40;99.90;;;;;;5049655;28;20278;-49
2022/10/01 08:08:47;;;;;;;23.70;3.70;;;15.40;99.90;;;;;;5036359;28;20183;-57
2022/10/01 08:11:16;;;;;;;21.63;3.30;;;15.50;99.90;;;;;;5031191;28;20188;-52
2022/10/01 08:13:46;;;;;;;20.25;2.78;;;15.50;99.90;;;;;;5044204;28;20211;-49
2022/10/01 08:16:13;;;;;;;20.15;2.78;;;15.50;99.90;;;;;;5050430;28;20656;-53
2022/10/01 08:18:39;;;;;;;21.08;3.08;;;15.60;99.90;;;;;;5034275;28;20309;-54
2022/10/01 08:21:06;;;;;;;12.45;2.33;;;15.70;99.90;;;;;;5034128;28;20172;-54
2022/10/01 08:23:33;;;;;;;17.25;2.90;;;15.80;99.90;;;;;;5033022;28;20661;-52
2022/10/01 08:26:06;;;;;;;25.80;2.75;;;15.90;99.90;;;;;;5042239;28;20302;-51
2022/10/01 08:28:33;;;;;;;20.75;3.00;;;15.90;99.90;;;;;;5051940;28;20650;-50
2022/10/01 08:31:05;;;;;;;21.45;3.55;;;16.00;99.90;;;;;;5038611;28;20229;-54
2022/10/01 08:33:32;;;;;;;17.17;2.92;;;16.10;99.90;;;;;;5032675;28;20658;-52
2022/10/01 08:36:01;;;;;;;13.63;2.38;;;16.20;99.90;;;;;;5025402;28;20187;-51
2022/10/01 08:38:27;;;;;;;15.90;2.80;;;16.30;99.90;;;;;;5034928;28;20273;-52
2022/10/01 08:40:53;;;;;;;18.98;2.80;;;16.30;99.90;;;;;;5040053;28;20987;-51
2022/10/01 08:43:29;;;;;;;15.48;2.60;;;16.30;99.90;;;;;;5047219;28;20550;-49
2022/10/01 08:45:59;;;;;;;25.65;3.08;;;16.30;99.90;;;;;;5048727;28;20182;-51
2022/10/01 08:48:51;;;;;;;23.98;3.05;;;16.30;99.90;;;;;;5050611;28;20753;-60
2022/10/01 08:51:31;;;;;;;18.70;2.65;;;16.30;99.90;;;;;;5042630;28;20183;-55
2022/10/01 08:54:23;;;;;;;14.55;2.85;;;16.20;99.90;;;;;;5047540;28;20289;-53
2022/10/01 08:56:49;;;;;;;19.52;2.72;;;16.20;99.90;;;;;;5035698;28;20217;-54
2022/10/01 08:59:18;;;;;;;21.20;3.33;;;16.10;99.90;;;;;;5037236;28;20206;-57
2022/10/01 09:01:44;;;;;;;18.85;3.10;;;16.20;99.90;;;;;;5041218;28;20184;-51
2022/10/01 09:04:10;;;;;;;15.90;2.80;;;16.20;99.90;;;;;;5036972;28;20277;-49
2022/10/01 09:06:37;;;;;;;16.85;2.53;;;16.20;99.90;;;;;;5051347;28;20544;-53
2022/10/01 09:09:41;;;;;;;21.67;2.75;;;16.20;99.90;;;;;;5055861;28;20182;-53
2022/10/01 09:12:34;;;;;;;13.30;2.63;;;16.20;99.90;;;;;;5010398;28;20195;-53
2022/10/01 09:15:33;;;;;;;21.33;2.85;;;16.20;99.90;;;;;;5044146;28;20187;-51
2022/10/01 09:18:10;;;;;;;15.02;3.38;;;16.20;99.90;;;;;;5055715;28;20179;-52
2022/10/01 09:20:40;;;;;;;19.48;3.28;;;16.20;99.90;;;;;;5054569;28;20179;-53
2022/10/01 09:23:29;;;;;;;13.60;2.65;;;16.20;99.90;;;;;;5055364;28;20167;-51
2022/10/01 09:25:57;;;;;;;28.63;3.45;;;16.20;99.90;;;;;;5052254;28;20326;-57
2022/10/01 09:28:32;;;;;;;20.65;3.05;;;16.20;99.90;;;;;;5040018;28;20195;-59
2022/10/01 09:31:46;;;;;;;18.27;2.95;;;16.20;99.90;;;;;;5044640;28;20202;-55
2022/10/01 09:34:14;;;;;;;16.95;2.85;;;16.20;99.90;;;;;;5004352;28;20257;-52
2022/10/01 09:36:55;;;;;;;17.80;2.83;;;16.20;99.90;;;;;;5033157;28;20270;-53
2022/10/01 09:39:46;;;;;;;19.00;3.35;;;16.30;99.90;;;;;;5030428;28;20266;-47
2022/10/01 09:42:12;;;;;;;17.00;2.60;;;16.40;99.90;;;;;;5064787;28;20201;-52
2022/10/01 09:44:38;;;;;;;18.45;3.08;;;16.40;99.90;;;;;;5045976;28;20191;-52
2022/10/01 09:47:16;;;;;;;15.00;2.35;;;16.50;99.90;;;;;;5018235;28;20196;-55
2022/10/01 09:49:43;;;;;;;13.77;2.72;;;16.60;99.90;;;;;;5035019;28;20164;-54
2022/10/01 09:52:33;;;;;;;16.55;2.70;;;16.60;99.90;;;;;;5046046;28;20187;-55
2022/10/01 09:55:18;;;;;;;16.15;4.22;;;16.60;99.90;;;;;;5033180;28;20191;-64
2022/10/01 09:57:46;;;;;;;18.80;2.97;;;16.60;99.90;;;;;;5034574;28;20194;-55
2022/10/01 10:00:21;;;;;;;18.50;4.13;;;16.60;99.90;;;;;;5051611;28;20237;-52
2022/10/01 10:02:49;;;;;;;21.15;3.00;;;16.60;99.90;;;;;;5049569;28;20655;-54
2022/10/01 10:05:19;;;;;;;20.98;3.10;;;16.60;99.90;;;;;;5031818;28;20183;-61
2022/10/01 10:07:52;;;;;;;14.35;2.65;;;16.60;99.90;;;;;;5039956;28;20175;-52
2022/10/01 10:10:38;;;;;;;19.80;3.10;;;16.70;99.90;;;;;;5052135;28;20192;-55
2022/10/01 10:13:10;;;;;;;12.20;2.70;;;16.70;99.90;;;;;;5054207;28;20227;-59
2022/10/01 10:15:48;;;;;;;17.20;2.92;;;16.60;99.90;;;;;;5036004;28;20273;-52
2022/10/01 10:18:17;;;;;;;17.48;3.25;;;16.60;99.90;;;;;;5015250;28;20183;-63
2022/10/01 10:20:44;;;;;;;17.02;3.08;;;16.60;99.90;;;;;;5048834;28;20631;-53
2022/10/01 10:23:19;;;;;;;20.25;3.28;;;16.60;99.90;;;;;;5036661;28;20559;-54
2022/10/01 10:25:59;;;;;;;15.57;2.92;;;16.60;99.90;;;;;;5052752;28;20316;-54
2022/10/01 10:28:26;;;;;;;22.23;3.22;;;16.60;99.90;;;;;;5038822;28;20187;-59
2022/10/01 10:30:54;;;;;;;18.35;2.65;;;16.60;99.90;;;;;;5036094;28;20184;-50
2022/10/01 10:33:22;;;;;;;19.67;3.30;;;16.60;99.90;;;;;;5033903;28;20723;-53
2022/10/01 10:35:59;;;;;;;29.00;3.13;;;16.60;99.90;;;;;;5042972;28;20257;-50
2022/10/01 10:38:37;;;;;;;23.30;3.42;;;16.60;99.90;;;;;;5053915;28;20619;-52
2022/10/01 10:41:02;;;;;;;18.75;3.30;;;16.70;99.90;;;;;;5037812;28;20556;-53
2022/10/01 10:43:33;;;;;;;22.45;2.92;;;16.70;99.90;;;;;;5048955;28;20192;-54
2022/10/01 10:45:59;;;;;;;19.90;3.28;;;16.80;99.90;;;;;;5035410;28;20191;-49
2022/10/01 10:48:34;;;;;;;17.17;2.65;;;16.90;99.90;;;;;;5039355;28;20195;-60
2022/10/01 10:51:02;;;;;;;17.38;3.13;;;17.00;99.90;;;;;;5036094;28;20266;-60
2022/10/01 10:53:39;;;;;;;23.30;3.42;;;17.10;99.90;;;;;;5032981;28;20752;-49
2022/10/01 10:56:13;;;;;;;21.63;3.30;;;17.10;99.90;;;;;;5033751;28;20724;-55
2022/10/01 10:58:41;;;;;;;20.92;3.05;;;17.20;99.90;;;;;;5048176;28;20697;-53
2022/10/01 11:01:17;;;;;;;14.82;2.22;;;17.30;99.90;;;;;;5037286;28;20631;-52
2022/10/01 11:03:48;;;;;;;15.00;2.90;;;17.40;99.90;;;;;;5034143;28;20299;-58
2022/10/01 11:06:18;;;;;;;18.33;2.70;;;17.40;99.90;;;;;;5044023;28;20178;-50
2022/10/01 11:08:55;;;;;;;17.17;2.78;;;17.50;99.90;;;;;;5052468;28;20179;-52
2022/10/01 11:11:43;;;;;;;20.15;2.75;;;17.60;99.90;;;;;;5049861;28;20191;-52
2022/10/01 11:14:44;;;;;;;17.38;2.90;;;17.70;99.90;;;;;;5036642;28;20210;-54
2022/10/01 11:17:29;;;;;;;15.35;3.05;;;17.80;99.90;;;;;;4966815;28;20213;-51
2022/10/01 11:20:15;;;;;;;13.77;2.67;;;17.80;99.90;;;;;;5031321;28;20200;-52
2022/10/01 11:23:14;;;;;;;14.73;2.00;;;17.90;99.90;;;;;;5052657;28;20167;-53
2022/10/01 11:25:52;;;;;;;15.88;2.92;;;17.90;99.90;;;;;;5048365;28;20275;-60
2022/10/01 11:28:48;;;;;;;14.48;2.60;;;17.90;99.90;;;;;;5042950;28;20190;-54
2022/10/01 11:31:23;;;;;;;20.40;2.95;;;17.90;99.90;;;;;;5051837;28;20652;-54
2022/10/01 11:34:19;;;;;;;18.25;2.80;;;17.90;99.90;;;;;;5053356;28;20206;-53
2022/10/01 11:36:57;;;;;;;19.65;3.00;;;18.00;99.90;;;;;;5026809;28;20178;-59
2022/10/01 11:39:27;;;;;;;16.80;2.50;;;18.00;99.90;;;;;;5033639;28;20314;-54
2022/10/01 11:41:59;;;;;;;17.05;2.58;;;18.20;99.90;;;;;;5048776;28;20175;-54
2022/10/01 11:44:28;;;;;;;14.43;2.67;;;18.30;99.90;;;;;;5051815;28;20175;-53
2022/10/01 11:47:19;;;;;;;19.80;2.95;;;18.40;99.90;;;;;;5035979;28;20179;-58
2022/10/01 11:50:03;;;;;;;20.75;3.53;;;18.40;99.90;;;;;;5038638;28;20172;-54
2022/10/01 11:52:35;;;;;;;18.92;2.78;;;18.40;99.90;;;;;;5033135;28;20266;-51
2022/10/01 12:01:05;;;;;;;14.40;2.67;;;18.30;99.90;;;;;;5048387;28;20225;-55
2022/10/01 12:03:37;;;;;;;19.27;3.38;;;18.20;99.90;;;;;;5052371;28;20226;-55
2022/10/01 12:06:08;;;;;;;15.93;2.97;;;18.20;99.90;;;;;;5050410;28;20179;-54
2022/10/01 12:08:37;;;;;;;19.25;2.97;;;18.20;99.90;;;;;;5016447;28;20186;-57
2022/10/01 12:11:28;;;;;;;13.77;2.80;;;18.30;99.90;;;;;;5042881;28;20674;-55
2022/10/01 12:14:03;;;;;;;13.10;2.47;;;18.40;99.90;;;;;;5052909;28;20195;-54
2022/10/01 12:16:38;;;;;;;17.77;2.95;;;18.50;99.90;;;;;;5050595;28;20193;-54
2022/10/01 12:19:11;;;;;;;17.00;2.95;;;18.70;99.90;;;;;;5016106;28;20261;-55
2022/10/01 12:21:46;;;;;;;16.70;3.03;;;18.70;99.90;;;;;;5033781;28;20176;-56
2022/10/01 12:24:17;;;;;;;18.45;2.90;;;18.80;99.90;;;;;;5048674;28;20168;-56
2022/10/01 12:27:03;;;;;;;12.93;2.63;;;18.90;99.90;;;;;;5038913;28;20234;-57
2022/10/01 12:29:32;;;;;;;21.00;2.65;;;18.90;99.90;;;;;;5039233;28;20630;-59
2022/10/01 12:32:31;;;;;;;17.02;3.17;;;18.90;99.90;;;;;;5055730;28;20191;-55
2022/10/01 12:35:15;;;;;;;15.48;2.40;;;19.00;99.90;;;;;;5054280;28;20194;-56
2022/10/01 12:37:56;;;;;;;16.55;2.60;;;19.10;99.90;;;;;;5055837;28;20175;-55
2022/10/01 12:40:31;;;;;;;18.20;3.20;;;19.10;99.90;;;;;;5043123;28;20182;-56
2022/10/01 12:43:21;;;;;;;17.30;2.83;;;19.00;99.90;;;;;;5067362;28;20210;-53
2022/10/01 12:45:55;;;;;;;12.52;2.47;;;19.00;99.90;;;;;;5043274;28;20194;-52
2022/10/01 12:48:43;;;;;;;18.05;2.95;;;19.00;99.90;;;;;;5038896;28;20254;-55
2022/10/01 12:51:35;;;;;;;14.07;2.67;;;19.10;99.90;;;;;;5041999;28;20274;-60
2022/10/01 12:54:09;;;;;;;17.15;4.60;;;19.20;99.90;;;;;;5057082;28;20195;-56
2022/10/01 12:56:41;;;;;;;11.77;2.53;;;19.30;99.90;;;;;;5055120;28;20198;-55
2022/10/01 12:59:30;;;;;;;17.98;3.10;;;19.40;99.80;;;;;;5054670;28;20191;-56
2022/10/01 13:02:09;;;;;;;16.90;2.80;;;19.50;99.50;;;;;;5053185;28;20205;-57
2022/10/01 13:05:00;;;;;;;15.70;2.85;;;19.50;99.00;;;;;;5042691;28;20226;-58
2022/10/01 13:07:51;;;;;;;18.73;3.00;;;19.50;98.80;;;;;;5036068;28;20179;-55